Time;durP1;ratioP1;P1;durP2;ratioP2;P2;SDS_P1;SDS_P2;PMS_P1;PMS_P2;Temp;Humidity;BMP_temperature;BMP_pressure;BME280_temperature;BME280_humidity;BME280_pressure;Samples;Min_cycle;Max_cycle;Signal;HPM_P1;HPM_P2
2022/07/21 00:00:27;;;;;;;2.45;1.22;;;;;;;19.06;100.00;99466.13;1619869;87;21077;-70
2022/07/21 00:02:56;;;;;;;6.03;1.35;;;;;;;19.07;100.00;99462.16;1606328;87;21044;-72
2022/07/21 00:05:22;;;;;;;3.92;1.60;;;;;;;19.06;100.00;99464.73;1619494;87;21157;-72
2022/07/21 00:07:50;;;;;;;4.40;1.72;;;;;;;19.06;100.00;99464.73;1618849;86;21450;-73
2022/07/21 00:10:17;;;;;;;7.40;1.82;;;;;;;19.04;100.00;99467.90;1629541;86;21527;-73
2022/07/21 00:12:43;;;;;;;5.50;1.30;;;;;;;18.97;100.00;99463.61;1625745;86;21557;-67
2022/07/21 00:15:11;;;;;;;12.37;2.05;;;;;;;18.94;100.00;99461.00;1630887;86;21035;-73
2022/07/21 00:17:39;;;;;;;3.58;1.40;;;;;;;18.91;100.00;99458.16;1622744;86;21592;-67
2022/07/21 00:20:09;;;;;;;12.07;2.35;;;;;;;18.89;100.00;99466.09;1625203;86;21072;-69
2022/07/21 00:22:35;;;;;;;3.30;1.12;;;;;;;18.83;100.00;99464.25;1599491;87;21080;-71
2022/07/21 00:25:07;;;;;;;6.33;1.47;;;;;;;18.78;100.00;99464.58;1651299;85;22505;-68
2022/07/21 00:27:33;;;;;;;8.95;2.12;;;;;;;18.76;100.00;99462.75;1663738;84;21149;-71
2022/07/21 00:30:00;;;;;;;6.55;1.50;;;;;;;18.74;100.00;99470.11;1665207;85;21104;-69
2022/07/21 00:32:27;;;;;;;3.70;1.22;;;;;;;18.72;100.00;99469.09;1663605;85;21153;-71
2022/07/21 00:34:54;;;;;;;7.85;2.00;;;;;;;18.70;100.00;99465.05;1662121;85;21113;-71
2022/07/21 00:37:23;;;;;;;6.55;2.65;;;;;;;18.69;100.00;99467.64;1604197;88;21075;-73
2022/07/21 00:39:51;;;;;;;7.08;1.82;;;;;;;18.61;100.00;99462.56;1632864;87;21106;-67
2022/07/21 00:42:25;;;;;;;5.90;2.02;;;;;;;18.57;100.00;99475.06;1627023;87;21041;-67
2022/07/21 00:44:52;;;;;;;9.08;1.80;;;;;;;18.52;100.00;99467.59;1621476;87;21162;-70
2022/07/21 00:50:17;;;;;;;4.75;1.80;;;;;;;18.46;100.00;99472.68;1652835;85;21090;-68
2022/07/21 00:52:45;;;;;;;17.60;2.00;;;;;;;18.39;100.00;99463.61;1661239;85;21049;-68
2022/07/21 00:55:15;;;;;;;5.92;1.37;;;;;;;18.40;100.00;99461.64;1655742;85;21104;-73
2022/07/21 00:57:42;;;;;;;7.47;1.45;;;;;;;18.40;100.00;99461.06;1645709;85;21258;-72
2022/07/21 01:00:14;;;;;;;11.68;2.15;;;;;;;18.37;100.00;99471.58;1642024;86;21063;-71
2022/07/21 01:02:40;;;;;;;3.75;1.85;;;;;;;18.33;100.00;99466.52;1694545;83;21089;-68
2022/07/21 01:05:14;;;;;;;5.15;1.77;;;;;;;18.33;100.00;99463.15;1694624;83;21201;-65
2022/07/21 01:07:45;;;;;;;6.55;1.87;;;;;;;18.32;100.00;99466.31;1689314;83;21182;-71
2022/07/21 01:10:12;;;;;;;5.55;2.05;;;;;;;18.29;100.00;99470.64;1688736;83;21682;-68
2022/07/21 01:12:40;;;;;;;3.67;1.75;;;;;;;18.26;100.00;99464.42;1688173;83;21044;-71
2022/07/21 01:15:07;;;;;;;6.75;2.17;;;;;;;18.22;100.00;99469.94;1694135;83;21016;-70
2022/07/21 01:17:36;;;;;;;5.65;2.10;;;;;;;18.21;100.00;99471.70;1695922;83;21078;-70
2022/07/21 01:20:06;;;;;;;6.53;2.67;;;;;;;18.20;100.00;99467.32;1693243;83;21157;-71
2022/07/21 01:22:37;;;;;;;3.62;1.92;;;;;;;18.12;100.00;99471.93;1690452;83;21060;-70
2022/07/21 01:25:04;;;;;;;7.15;2.25;;;;;;;18.13;100.00;99462.44;1693649;83;21001;-65
2022/07/21 01:27:31;;;;;;;5.25;1.75;;;;;;;18.08;100.00;99472.47;1696248;83;21031;-72
2022/07/21 01:30:07;;;;;;;6.35;1.90;;;;;;;18.08;100.00;99466.90;1689977;83;21550;-68
2022/07/21 01:32:35;;;;;;;5.90;1.77;;;;;;;18.08;100.00;99456.53;1692469;83;21092;-75
2022/07/21 01:35:04;;;;;;;9.18;1.90;;;;;;;18.05;100.00;99453.72;1687852;83;21100;-72
2022/07/21 01:37:30;;;;;;;6.17;2.25;;;;;;;18.04;100.00;99452.90;1683620;83;21530;-73
2022/07/21 01:42:41;;;;;;;5.75;2.27;;;;;;;17.96;100.00;99457.53;1688450;83;21064;-74
2022/07/21 01:45:09;;;;;;;3.45;1.80;;;;;;;17.93;100.00;99454.10;1690284;83;21099;-70
2022/07/21 01:47:36;;;;;;;3.92;2.20;;;;;;;17.87;100.00;99452.81;1690647;83;21215;-71
2022/07/21 01:50:03;;;;;;;4.85;1.72;;;;;;;17.81;100.00;99456.48;1687117;83;21039;-71
2022/07/21 01:52:30;;;;;;;4.15;1.92;;;;;;;17.76;100.00;99451.22;1686149;83;21051;-71
2022/07/21 01:54:58;;;;;;;5.70;2.00;;;;;;;17.76;100.00;99450.64;1685544;83;21099;-72
2022/07/21 01:57:26;;;;;;;16.20;2.40;;;;;;;17.85;100.00;99451.80;1688336;83;21032;-72
2022/07/21 01:59:52;;;;;;;7.72;2.00;;;;;;;17.75;100.00;99442.08;1688492;83;21092;-74
2022/07/21 02:02:21;;;;;;;4.00;2.25;;;;;;;17.75;100.00;99446.26;1681972;83;21011;-72
2022/07/21 02:04:48;;;;;;;4.55;2.22;;;;;;;17.71;100.00;99444.56;1689605;83;21024;-72
2022/07/21 02:07:15;;;;;;;4.05;2.20;;;;;;;17.68;100.00;99448.91;1689505;83;21081;-72
2022/07/21 02:09:42;;;;;;;6.22;2.08;;;;;;;17.67;100.00;99443.70;1687487;83;21107;-69
2022/07/21 02:12:09;;;;;;;5.60;2.27;;;;;;;17.69;100.00;99442.76;1682592;83;21084;-71
2022/07/21 02:14:37;;;;;;;9.75;2.27;;;;;;;17.69;100.00;99440.75;1687465;83;21055;-74
2022/07/21 02:17:05;;;;;;;6.05;2.02;;;;;;;17.68;100.00;99441.94;1688712;83;21032;-71
2022/07/21 02:19:31;;;;;;;6.70;1.80;;;;;;;17.66;100.00;99447.07;1687840;83;21044;-71
2022/07/21 02:21:58;;;;;;;6.85;1.60;;;;;;;17.66;100.00;99434.53;1685587;83;21103;-68
2022/07/21 02:24:24;;;;;;;3.52;1.37;;;;;;;17.59;100.00;99438.58;1686050;83;21538;-67
2022/07/21 02:26:50;;;;;;;5.03;1.77;;;;;;;17.52;100.00;99435.89;1685495;83;20975;-70
2022/07/21 02:29:17;;;;;;;5.42;1.60;;;;;;;17.48;100.00;99436.42;1688100;83;21112;-67
2022/07/21 02:31:43;;;;;;;3.45;1.45;;;;;;;17.43;100.00;99439.52;1682868;83;21047;-68
2022/07/21 02:34:11;;;;;;;3.75;2.58;;;;;;;17.39;100.00;99438.05;1689269;83;20988;-67
2022/07/21 02:36:38;;;;;;;4.95;1.60;;;;;;;17.42;100.00;99439.88;1685451;83;22017;-70
2022/07/21 02:39:06;;;;;;;3.25;1.40;;;;;;;17.44;100.00;99436.94;1682140;83;21037;-68
2022/07/21 02:41:34;;;;;;;4.70;1.62;;;;;;;17.48;100.00;99433.64;1668048;83;21093;-68
2022/07/21 02:44:01;;;;;;;5.50;1.55;;;;;;;17.60;100.00;99435.45;1687523;83;21120;-72
2022/07/21 02:46:28;;;;;;;4.97;1.82;;;;;;;17.57;100.00;99436.77;1681763;83;21088;-71
2022/07/21 02:48:54;;;;;;;3.25;1.70;;;;;;;17.48;100.00;99433.64;1686550;83;21219;-71
2022/07/21 02:51:20;;;;;;;6.75;2.12;;;;;;;17.47;100.00;99440.37;1676058;83;21573;-70
2022/07/21 02:53:47;;;;;;;2.87;1.67;;;;;;;17.53;100.00;99432.52;1675931;84;21337;-67
2022/07/21 02:56:15;;;;;;;7.62;1.92;;;;;;;17.58;100.00;99430.02;1674824;84;21036;-71
2022/07/21 02:58:42;;;;;;;9.08;2.27;;;;;;;17.60;100.00;99424.88;1676143;84;21080;-67
2022/07/21 03:01:10;;;;;;;6.35;2.75;;;;;;;17.66;100.00;99428.18;1676157;84;21146;-67
2022/07/21 03:03:37;;;;;;;5.72;2.20;;;;;;;17.75;100.00;99425.94;1675988;84;21007;-65
2022/07/21 03:06:04;;;;;;;4.50;2.10;;;;;;;17.82;100.00;99422.47;1676498;84;21098;-69
2022/07/21 03:08:33;;;;;;;4.22;2.05;;;;;;;17.92;100.00;99423.23;1674788;84;21552;-71
2022/07/21 03:11:03;;;;;;;5.83;2.02;;;;;;;17.91;100.00;99427.80;1675935;84;21100;-68
2022/07/21 03:13:33;;;;;;;6.90;2.25;;;;;;;17.87;100.00;99435.52;1677390;84;21080;-68
2022/07/21 03:16:00;;;;;;;2.65;1.72;;;;;;;17.89;100.00;99430.34;1677294;84;21111;-67
2022/07/21 03:18:27;;;;;;;6.45;2.35;;;;;;;17.88;100.00;99423.75;1675244;84;21148;-71
2022/07/21 03:20:54;;;;;;;7.03;2.33;;;;;;;17.88;100.00;99415.39;1675982;84;21176;-68
2022/07/21 03:23:21;;;;;;;4.87;1.77;;;;;;;17.92;100.00;99419.64;1674076;84;21139;-70
2022/07/21 03:25:50;;;;;;;6.97;2.95;;;;;;;17.94;100.00;99418.11;1674892;84;21316;-70
2022/07/21 03:28:17;;;;;;;4.65;2.37;;;;;;;17.97;100.00;99424.91;1675649;84;21672;-66
2022/07/21 03:30:44;;;;;;;5.37;2.33;;;;;;;18.01;100.00;99424.38;1677384;84;21125;-71
2022/07/21 03:33:10;;;;;;;3.62;1.85;;;;;;;18.01;100.00;99421.59;1673973;84;22157;-70
2022/07/21 03:35:37;;;;;;;8.03;2.47;;;;;;;18.04;100.00;99420.84;1674024;84;21053;-68
2022/07/21 03:38:05;;;;;;;5.20;1.62;;;;;;;18.08;100.00;99420.30;1675946;84;21843;-68
2022/07/21 03:40:33;;;;;;;4.67;1.95;;;;;;;18.08;100.00;99423.08;1676361;84;21160;-67
2022/07/21 03:43:01;;;;;;;5.47;1.85;;;;;;;18.09;100.00;99425.30;1674513;84;21521;-71
2022/07/21 03:45:31;;;;;;;5.85;1.80;;;;;;;18.09;100.00;99424.71;1676507;84;21178;-67
2022/07/21 03:48:02;;;;;;;4.12;1.60;;;;;;;18.10;100.00;99422.73;1674091;84;21097;-66
2022/07/21 03:50:32;;;;;;;5.25;1.52;;;;;;;18.10;100.00;99431.10;1673329;84;21900;-67
2022/07/21 03:53:01;;;;;;;2.35;1.50;;;;;;;18.10;100.00;99422.73;1667345;84;21458;-69
2022/07/21 03:55:27;;;;;;;5.37;1.55;;;;;;;18.12;100.00;99420.36;1668601;84;21087;-66
2022/07/21 03:57:59;;;;;;;3.95;1.52;;;;;;;18.16;100.00;99419.05;1666868;84;21081;-66
2022/07/21 04:00:32;;;;;;;3.42;1.62;;;;;;;18.22;100.00;99416.96;1667985;84;21428;-69
2022/07/21 04:02:59;;;;;;;3.75;1.50;;;;;;;18.27;100.00;99404.67;1667947;84;21787;-70
2022/07/21 04:05:25;;;;;;;3.35;1.42;;;;;;;18.36;100.00;99407.20;1668200;84;21722;-73
2022/07/21 04:07:54;;;;;;;7.80;1.90;;;;;;;18.44;100.00;99407.52;1669250;84;21139;-68
2022/07/21 04:10:26;;;;;;;6.15;1.72;;;;;;;18.47;100.00;99409.58;1612668;87;21081;-65
2022/07/21 04:12:56;;;;;;;2.35;1.40;;;;;;;18.52;100.00;99410.41;1667953;84;21143;-68
2022/07/21 04:15:23;;;;;;;6.00;1.92;;;;;;;18.57;100.00;99411.48;1669652;84;21085;-69
2022/07/21 04:17:50;;;;;;;2.20;1.52;;;;;;;18.75;100.00;99407.52;1668667;84;21582;-71
2022/07/21 04:20:18;;;;;;;4.47;1.62;;;;;;;18.69;100.00;99404.28;1668349;84;21142;-68
2022/07/21 04:22:45;;;;;;;8.30;1.50;;;;;;;18.78;100.00;99405.98;1668299;84;21534;-69
2022/07/21 04:25:12;;;;;;;4.58;1.70;;;;;;;18.88;100.00;99406.70;1667292;84;21046;-68
2022/07/21 04:27:39;;;;;;;8.03;1.67;;;;;;;18.97;100.00;99410.58;1667795;84;21155;-71
2022/07/21 04:30:09;;;;;;;3.65;1.72;;;;;;;19.03;100.00;99405.47;1666811;84;21108;-70
2022/07/21 04:32:35;;;;;;;4.30;1.60;;;;;;;19.09;100.00;99401.14;1668539;84;21159;-67
2022/07/21 04:35:05;;;;;;;5.33;1.55;;;;;;;19.15;100.00;99401.06;1667199;84;21075;-70
2022/07/21 04:37:34;;;;;;;7.33;1.57;;;;;;;19.20;100.00;99395.72;1668300;84;21044;-67
2022/07/21 04:40:01;;;;;;;4.47;1.60;;;;;;;19.25;100.00;99398.75;1667425;84;21237;-70
2022/07/21 04:42:28;;;;;;;4.47;1.25;;;;;;;19.27;100.00;99397.78;1663853;84;21047;-66
2022/07/21 04:44:54;;;;;;;6.75;1.80;;;;;;;19.30;100.00;99399.81;1663570;84;21113;-69
2022/07/21 04:47:21;;;;;;;2.35;1.25;;;;;;;19.34;100.00;99407.64;1665214;84;22040;-69
2022/07/21 04:49:50;;;;;;;2.90;1.70;;;;;;;19.40;100.00;99413.09;1659102;86;21022;-68
2022/07/21 04:52:17;;;;;;;5.22;1.45;;;;;;;19.46;100.00;99412.16;1674540;83;21084;-70
2022/07/21 04:54:44;;;;;;;4.75;1.30;;;;;;;19.50;100.00;99411.58;1687372;83;21016;-69
2022/07/21 04:57:13;;;;;;;1.62;1.02;;;;;;;19.55;100.00;99405.64;1682559;83;21654;-70
2022/07/21 04:59:42;;;;;;;8.13;2.87;;;;;;;19.62;100.00;99412.51;1684339;83;21122;-69
2022/07/21 05:02:08;;;;;;;9.15;1.40;;;;;;;19.70;100.00;99407.19;1685301;83;21624;-71
2022/07/21 05:04:37;;;;;;;12.82;1.80;;;;;;;19.87;100.00;99409.93;1684923;83;21668;-70
2022/07/21 05:07:03;;;;;;;1.52;1.22;;;;;;;19.90;100.00;99410.55;1685368;83;21662;-68
2022/07/21 05:09:30;;;;;;;3.05;1.60;;;;;;;19.91;100.00;99413.55;1684856;83;21145;-70
2022/07/21 05:11:56;;;;;;;5.75;1.25;;;;;;;19.93;100.00;99411.76;1686641;83;21060;-72
2022/07/21 05:14:23;;;;;;;5.25;1.37;;;;;;;19.99;100.00;99412.22;1685268;83;21078;-72
2022/07/21 05:16:49;;;;;;;3.58;1.35;;;;;;;20.04;100.00;99414.09;1682171;83;21070;-66
2022/07/21 05:19:18;;;;;;;1.60;0.95;;;;;;;20.11;100.00;99416.14;1673790;83;21136;-66
2022/07/21 05:21:47;;;;;;;5.67;1.22;;;;;;;20.34;100.00;99405.87;1685487;83;21116;-65
2022/07/21 05:24:14;;;;;;;2.08;1.07;;;;;;;20.41;100.00;99412.34;1667433;83;21491;-65
2022/07/21 05:26:40;;;;;;;3.20;1.20;;;;;;;20.45;100.00;99408.75;1677670;83;21686;-69
2022/07/21 05:29:09;;;;;;;5.78;1.20;;;;;;;20.50;100.00;99404.19;1684290;83;21552;-67
2022/07/21 05:31:36;;;;;;;3.22;1.20;;;;;;;20.45;100.00;99403.16;1671368;83;21048;-69
2022/07/21 05:34:03;;;;;;;3.25;1.10;;;;;;;20.39;100.00;99399.33;1666252;83;21068;-69
2022/07/21 05:36:30;;;;;;;2.80;1.20;;;;;;;20.42;100.00;99401.34;1670828;83;21079;-73
2022/07/21 05:38:57;;;;;;;2.72;1.10;;;;;;;20.48;100.00;99394.79;1665232;85;21067;-70
2022/07/21 05:41:25;;;;;;;5.00;1.42;;;;;;;20.58;100.00;99403.62;1679146;83;21022;-69
2022/07/21 05:43:51;;;;;;;7.50;1.20;;;;;;;20.64;100.00;99402.84;1673003;83;21045;-74
2022/07/21 05:46:18;;;;;;;3.35;1.45;;;;;;;20.72;100.00;99408.49;1667902;84;21394;-71
2022/07/21 05:48:45;;;;;;;3.72;1.60;;;;;;;20.81;100.00;99399.16;1669841;84;21114;-71
2022/07/21 05:51:14;;;;;;;1.10;0.98;;;;;;;20.90;100.00;99398.77;1676428;83;21101;-67
2022/07/21 05:53:40;;;;;;;8.10;1.42;;;;;;;21.02;100.00;99397.64;1666273;84;21214;-71
2022/07/21 05:56:07;;;;;;;3.75;1.20;;;;;;;21.06;100.00;99393.45;1665520;84;21081;-69
2022/07/21 05:58:34;;;;;;;2.95;1.00;;;;;;;21.20;100.00;99388.50;1667866;84;21518;-69
2022/07/21 06:01:13;;;;;;;8.13;1.37;;;;;;;21.25;100.00;99392.31;1672520;83;21621;-70
2022/07/21 06:03:49;;;;;;;8.50;1.50;;;;;;;21.31;100.00;99397.72;1667133;83;21122;-70
2022/07/21 06:06:18;;;;;;;3.75;1.45;;;;;;;21.38;100.00;99396.34;1676878;83;21089;-66
2022/07/21 06:08:47;;;;;;;7.42;1.75;;;;;;;21.50;100.00;99392.94;1645789;85;21588;-69
2022/07/21 06:11:17;;;;;;;1.45;0.80;;;;;;;21.59;100.00;99393.95;1677975;83;21080;-72
2022/07/21 06:13:45;;;;;;;2.60;1.05;;;;;;;21.68;100.00;99393.57;1671702;83;21144;-68
2022/07/21 06:16:11;;;;;;;4.03;1.10;;;;;;;21.75;100.00;99391.56;1676483;83;21038;-69
2022/07/21 06:18:40;;;;;;;5.30;1.10;;;;;;;21.81;100.00;99384.99;1675988;83;21010;-71
2022/07/21 06:21:07;;;;;;;4.62;1.12;;;;;;;21.89;100.00;99386.59;1677234;83;21540;-68
2022/07/21 06:23:34;;;;;;;3.80;1.17;;;;;;;21.95;100.00;99388.99;1681034;83;21087;-68
2022/07/21 06:26:01;;;;;;;6.83;0.98;;;;;;;22.05;100.00;99389.59;1680433;83;21061;-66
2022/07/21 06:28:29;;;;;;;0.70;0.60;;;;;;;22.09;100.00;99387.56;1681688;83;21041;-71
2022/07/21 06:30:56;;;;;;;6.47;0.72;;;;;;;22.16;100.00;99383.16;1679097;83;21103;-73
2022/07/21 06:33:23;;;;;;;3.47;0.98;;;;;;;22.20;100.00;99381.95;1675348;83;21544;-68
2022/07/21 07:34:47;;;;;;;4.30;0.90;;;;;;;23.28;100.00;99344.02;1837103;77;22303;-74
2022/07/21 07:37:13;;;;;;;2.85;0.80;;;;;;;23.39;100.00;99350.95;1803956;79;20967;-75
2022/07/21 07:39:40;;;;;;;6.05;0.90;;;;;;;23.53;100.00;99354.30;1803634;79;21253;-77
2022/07/21 07:42:07;;;;;;;6.03;0.75;;;;;;;23.61;100.00;99337.37;1814126;79;21465;-74
2022/07/21 07:44:35;;;;;;;3.33;0.70;;;;;;;23.72;100.00;99340.89;1805669;79;21013;-75
2022/07/21 07:47:03;;;;;;;2.05;0.60;;;;;;;23.82;100.00;99343.41;1795627;79;20877;-77
2022/07/21 07:49:31;;;;;;;1.85;0.78;;;;;;;23.84;100.00;99335.36;1807561;79;21507;-75
2022/07/21 07:51:57;;;;;;;13.25;1.20;;;;;;;23.88;100.00;99330.52;1807146;79;21766;-72
2022/07/21 07:54:27;;;;;;;9.00;0.60;;;;;;;23.97;100.00;99342.66;1806922;79;20934;-76
2022/07/21 07:57:00;;;;;;;6.05;0.60;;;;;;;23.95;100.00;99340.89;1806279;79;21477;-75
2022/07/21 07:59:30;;;;;;;4.90;0.60;;;;;;;23.97;100.00;99333.44;1809003;79;20991;-75
2022/07/21 08:01:57;;;;;;;2.02;0.80;;;;;;;24.02;100.00;99340.02;1810551;79;21076;-76
2022/07/21 08:04:24;;;;;;;0.98;0.42;;;;;;;23.98;98.85;99327.40;1809832;79;22014;-73
2022/07/21 08:06:54;;;;;;;2.22;0.62;;;;;;;23.99;100.00;99333.80;1805271;79;20999;-75
2022/07/21 08:09:22;;;;;;;4.78;0.50;;;;;;;24.03;100.00;99326.14;1809139;79;20879;-75
2022/07/21 08:11:51;;;;;;;2.58;1.10;;;;;;;24.07;98.85;99324.09;1810690;79;20913;-70
2022/07/21 08:14:20;;;;;;;3.42;1.10;;;;;;;24.08;100.00;99321.46;1803565;79;20868;-76
2022/07/21 08:16:46;;;;;;;1.30;0.80;;;;;;;24.19;100.00;99319.35;1804096;79;21476;-73
2022/07/21 08:19:17;;;;;;;4.17;1.07;;;;;;;24.34;100.00;99316.98;1811343;79;21471;-74
2022/07/21 08:21:45;;;;;;;3.87;0.80;;;;;;;24.43;100.00;99311.64;1802543;79;20932;-75
2022/07/21 08:24:11;;;;;;;2.95;0.80;;;;;;;24.51;100.00;99304.72;1780806;79;21024;-74
2022/07/21 08:26:41;;;;;;;3.08;0.80;;;;;;;24.64;100.00;99316.81;1775083;80;20952;-74
2022/07/21 08:29:16;;;;;;;3.55;0.70;;;;;;;24.67;100.00;99305.51;1773597;80;21260;-76
2022/07/21 08:31:43;;;;;;;3.12;0.57;;;;;;;24.65;96.02;99302.94;1782820;80;20908;-76
2022/07/21 08:34:10;;;;;;;5.60;0.98;;;;;;;24.66;96.70;99310.97;1775899;80;21405;-74
2022/07/21 08:36:37;;;;;;;3.47;0.55;;;;;;;24.71;99.45;99309.69;1771274;80;20964;-76
2022/07/21 08:39:06;;;;;;;7.87;1.07;;;;;;;24.71;94.68;99300.44;1777478;80;20868;-77
2022/07/21 08:41:37;;;;;;;2.72;0.60;;;;;;;24.76;100.00;99302.17;1775978;80;21671;-73
2022/07/21 08:44:04;;;;;;;1.82;0.60;;;;;;;24.75;96.40;99300.59;1774306;80;21469;-74
2022/07/21 08:46:32;;;;;;;1.50;0.65;;;;;;;24.76;98.40;99295.14;1779619;80;20900;-72
2022/07/21 08:48:58;;;;;;;3.62;0.68;;;;;;;24.82;99.18;99294.66;1774524;80;20913;-74
2022/07/21 08:51:25;;;;;;;3.65;0.80;;;;;;;24.96;100.00;99291.66;1772890;80;20955;-70
2022/07/21 08:53:53;;;;;;;8.65;0.93;;;;;;;25.08;100.00;99293.72;1774526;80;21276;-76
2022/07/21 08:56:19;;;;;;;4.75;0.70;;;;;;;25.20;97.09;99279.66;1774594;80;21470;-74
2022/07/21 08:58:46;;;;;;;2.47;0.80;;;;;;;25.21;96.91;99280.63;1764715;80;21505;-74
2022/07/21 09:01:13;;;;;;;3.45;0.85;;;;;;;25.23;94.91;99284.43;1774549;80;21422;-77
2022/07/21 09:03:41;;;;;;;5.28;0.70;;;;;;;25.23;96.50;99278.16;1774424;80;20845;-76
2022/07/21 09:06:14;;;;;;;5.03;1.22;;;;;;;25.33;100.00;99265.74;1777429;80;21092;-74
2022/07/21 09:08:49;;;;;;;4.50;0.72;;;;;;;25.46;98.49;99272.36;1775410;80;20926;-76
2022/07/21 09:11:23;;;;;;;1.42;0.78;;;;;;;25.55;97.99;99263.35;1775787;80;21032;-76
2022/07/21 09:14:11;;;;;;;0.85;0.53;;;;;;;25.74;98.67;99261.03;1774883;80;20944;-73
2022/07/21 09:16:43;;;;;;;2.85;0.72;;;;;;;25.82;96.81;99263.09;1771956;80;20959;-75
2022/07/21 09:19:35;;;;;;;4.60;0.57;;;;;;;25.88;95.30;99257.93;1772970;80;20927;-77
2022/07/21 09:22:06;;;;;;;4.85;0.78;;;;;;;25.91;92.41;99259.71;1773742;80;20873;-74
2022/07/21 09:24:39;;;;;;;2.40;0.50;;;;;;;25.92;90.62;99263.51;1778222;80;20942;-76
2022/07/21 09:27:16;;;;;;;2.87;0.90;;;;;;;25.92;89.67;99262.70;1783127;80;20885;-72
2022/07/21 09:29:49;;;;;;;0.50;0.50;;;;;;;25.95;92.58;99261.23;1775841;80;21581;-75
2022/07/21 09:32:30;;;;;;;3.52;0.70;;;;;;;26.03;93.19;99252.63;1757925;80;20950;-75
2022/07/21 09:35:12;;;;;;;2.15;1.12;;;;;;;26.12;96.37;99248.00;1770231;80;21041;-73
2022/07/21 09:37:40;;;;;;;1.77;0.85;;;;;;;26.27;98.77;99248.32;1760540;80;21035;-74
2022/07/21 09:40:12;;;;;;;5.10;1.02;;;;;;;26.33;93.51;99241.76;1764505;79;21041;-73
2022/07/21 09:42:44;;;;;;;10.82;1.15;;;;;;;26.42;94.59;99239.76;1772999;79;20991;-74
2022/07/21 09:45:14;;;;;;;4.83;0.60;;;;;;;26.40;93.50;99236.57;1770959;79;21094;-71
2022/07/21 09:47:41;;;;;;;2.70;1.12;;;;;;;26.45;89.60;99233.84;1765037;79;21127;-76
2022/07/21 09:50:10;;;;;;;4.97;1.07;;;;;;;26.46;93.54;99226.98;1765096;79;21142;-65
2022/07/21 09:52:39;;;;;;;1.37;0.78;;;;;;;26.56;95.51;99230.80;1765649;80;21039;-69
2022/07/21 09:55:13;;;;;;;4.03;0.80;;;;;;;26.65;94.13;99229.56;1769177;80;21068;-73
2022/07/21 09:57:41;;;;;;;4.12;1.05;;;;;;;26.59;88.83;99227.89;1709984;81;21073;-69
2022/07/21 10:00:12;;;;;;;1.72;1.05;;;;;;;26.51;89.23;99220.02;1717272;82;21046;-68
2022/07/21 10:02:39;;;;;;;3.10;1.12;;;;;;;26.52;89.49;99212.52;1709525;82;21042;-68
2022/07/21 10:05:10;;;;;;;2.85;0.78;;;;;;;26.66;90.42;99217.66;1698364;82;21090;-74
2022/07/21 10:07:41;;;;;;;;;;;;;;;26.81;87.29;99216.09;1734001;82;21097;-67
2022/07/21 10:10:10;;;;;;;6.53;1.22;;;;;;;26.76;87.40;99210.16;1710232;82;21066;-70
2022/07/21 10:12:40;;;;;;;2.52;1.22;;;;;;;26.85;87.39;99204.70;1721540;82;21121;-69
2022/07/21 10:15:09;;;;;;;8.30;1.10;;;;;;;26.98;89.07;99201.96;1727852;83;21031;-71
2022/07/21 10:17:36;;;;;;;3.40;1.20;;;;;;;27.10;94.62;99207.55;1722413;81;20934;-69
2022/07/21 10:20:15;;;;;;;4.15;1.05;;;;;;;27.26;91.19;99214.44;1724469;82;21046;-69
2022/07/21 10:23:11;;;;;;;1.57;0.80;;;;;;;27.31;87.28;99212.48;1694857;82;21146;-70
2022/07/21 10:25:38;;;;;;;2.35;0.93;;;;;;;27.33;88.38;99209.37;1715635;82;21095;-70
2022/07/21 10:28:17;;;;;;;1.62;1.22;;;;;;;27.23;83.15;99210.45;1717643;81;21066;-64
2022/07/21 10:30:49;;;;;;;7.00;1.30;;;;;;;27.05;84.51;99206.67;1678294;84;21069;-67
2022/07/21 10:33:19;;;;;;;4.15;1.37;;;;;;;26.88;84.77;99217.95;1677722;83;21560;-66
2022/07/21 10:35:51;;;;;;;6.47;1.55;;;;;;;26.77;85.37;99216.78;1703541;82;21065;-66
2022/07/21 10:38:31;;;;;;;3.90;1.10;;;;;;;26.70;84.16;99219.79;1690910;82;21493;-68
2022/07/21 10:40:59;;;;;;;2.77;1.25;;;;;;;26.56;89.35;99217.45;1691276;83;21031;-65
2022/07/21 10:43:31;;;;;;;4.08;1.00;;;;;;;26.59;92.82;99217.20;1695405;82;21074;-71
2022/07/21 10:46:00;;;;;;;7.15;1.17;;;;;;;26.64;89.19;99211.64;1720061;82;21523;-68
2022/07/21 10:48:44;;;;;;;5.75;1.20;;;;;;;26.65;89.76;99208.37;1700591;83;21143;-70
2022/07/21 10:51:15;;;;;;;3.45;1.40;;;;;;;26.68;91.51;99207.49;1718388;82;21431;-71
2022/07/21 10:53:46;;;;;;;4.27;1.97;;;;;;;26.82;100.00;99211.21;1698393;82;21021;-72
2022/07/21 10:56:31;;;;;;;3.83;1.30;;;;;;;26.95;93.08;99206.48;1694327;82;21070;-71
2022/07/21 10:58:59;;;;;;;5.42;1.20;;;;;;;27.05;95.04;99199.61;1724495;81;21483;-71
2022/07/21 11:01:26;;;;;;;4.95;1.62;;;;;;;27.14;92.54;99196.97;1717594;81;21025;-68
2022/07/21 11:04:22;;;;;;;5.80;1.25;;;;;;;27.24;95.19;99195.70;1683546;83;21043;-71
2022/07/21 11:06:44;;;;;;;6.03;1.15;;;;;;;27.31;91.67;99199.13;1681677;83;21614;-68
2022/07/21 11:09:17;;;;;;;2.33;1.30;;;;;;;27.39;94.20;99198.95;1687853;84;21098;-69
2022/07/21 11:12:08;;;;;;;4.90;1.17;;;;;;;27.47;92.48;99207.41;1682807;84;21587;-73
2022/07/21 11:14:43;;;;;;;3.65;1.77;;;;;;;27.42;85.20;99204.52;1693433;82;21066;-72
2022/07/21 11:17:27;;;;;;;10.23;1.50;;;;;;;27.25;90.10;99205.77;1697397;84;20960;-72
2022/07/21 11:20:00;;;;;;;;;;;;;;;27.25;92.23;99200.91;1604085;87;21558;-69
2022/07/21 11:22:28;;;;;;;6.35;1.37;;;;;;;27.29;92.37;99202.23;1679464;83;20174;-71
2022/07/21 11:25:05;;;;;;;13.88;1.45;;;;;;;27.35;92.50;99204.69;1703909;82;21028;-71
2022/07/21 11:27:39;;;;;;;6.58;1.45;;;;;;;27.32;88.96;99198.52;1698265;83;21386;-67
2022/07/21 11:30:09;;;;;;;4.42;1.37;;;;;;;27.40;95.28;99192.84;1688851;83;21024;-71
2022/07/21 11:32:39;;;;;;;1.25;1.00;;;;;;;27.55;93.95;99185.41;1676057;84;21138;-74
2022/07/21 11:35:06;;;;;;;6.03;1.55;;;;;;;27.68;97.06;99179.78;1662649;84;21114;-72
2022/07/21 11:37:38;;;;;;;3.42;1.60;;;;;;;27.78;92.52;99185.80;1720053;82;20864;-71
2022/07/21 11:40:15;;;;;;;2.37;1.50;;;;;;;27.86;96.65;99188.43;1717109;82;21797;-72
2022/07/21 11:42:44;;;;;;;4.33;1.95;;;;;;;27.94;91.71;99188.39;1716590;82;21601;-68
2022/07/21 11:45:12;;;;;;;2.80;1.98;;;;;;;27.98;89.29;99185.46;1696058;82;21718;-67
2022/07/21 11:47:39;;;;;;;4.33;2.60;;;;;;;27.98;88.19;99172.73;1704370;83;21056;-69
2022/07/21 11:50:11;;;;;;;3.55;2.50;;;;;;;27.88;83.27;99176.02;1708424;83;21051;-71
2022/07/21 11:52:39;;;;;;;2.95;2.62;;;;;;;27.57;82.18;99174.41;1694569;82;21127;-67
2022/07/21 11:55:12;;;;;;;3.12;2.25;;;;;;;27.37;85.37;99178.80;1693033;84;21047;-70
2022/07/21 11:57:43;;;;;;;6.95;2.50;;;;;;;27.32;86.62;99168.83;1702133;82;21078;-73
2022/07/21 12:00:13;;;;;;;5.53;2.55;;;;;;;27.31;89.90;99163.78;1704078;83;22671;-70
2022/07/21 12:02:41;;;;;;;5.80;2.98;;;;;;;27.40;94.33;99170.86;1718645;82;21476;-68
2022/07/21 12:05:08;;;;;;;3.60;2.30;;;;;;;27.51;91.65;99170.55;1713412;83;21795;-69
2022/07/21 12:07:41;;;;;;;7.03;2.35;;;;;;;27.42;89.59;99175.43;1727042;82;21050;-71
2022/07/21 12:10:10;;;;;;;3.27;2.58;;;;;;;27.42;92.86;99178.26;1703194;82;21162;-70
2022/07/21 12:12:45;;;;;;;3.00;2.05;;;;;;;27.49;91.21;99173.03;1711336;82;21062;-70
2022/07/21 12:15:23;;;;;;;9.53;2.80;;;;;;;27.61;92.91;99172.30;1691571;83;21487;-71
2022/07/21 12:17:59;;;;;;;10.40;2.83;;;;;;;27.74;91.08;99176.61;1699401;83;21153;-72
2022/07/21 12:20:31;;;;;;;7.47;2.65;;;;;;;27.75;84.02;99160.43;1717185;82;21379;-75
2022/07/21 12:23:24;;;;;;;3.90;2.40;;;;;;;27.70;89.69;99161.78;1717394;82;21079;-73
2022/07/21 12:25:56;;;;;;;3.90;2.45;;;;;;;27.82;85.39;99165.89;1713782;82;21067;-73
2022/07/21 12:28:47;;;;;;;3.27;2.37;;;;;;;28.00;88.37;99161.11;1689499;82;21099;-69
2022/07/21 12:31:20;;;;;;;4.22;2.58;;;;;;;28.03;82.32;99159.44;1671277;83;21078;-72
2022/07/21 12:33:46;;;;;;;4.17;2.35;;;;;;;28.20;86.91;99164.36;1712001;82;21075;-71
2022/07/21 12:36:15;;;;;;;4.25;2.67;;;;;;;28.07;88.01;99167.19;1712933;81;21068;-71
2022/07/21 12:38:47;;;;;;;6.70;3.12;;;;;;;27.97;81.96;99168.30;1712334;82;21649;-70
2022/07/21 12:41:15;;;;;;;4.30;2.27;;;;;;;27.90;85.00;99167.27;1711928;82;21078;-75
2022/07/21 12:43:56;;;;;;;6.30;2.95;;;;;;;27.90;87.28;99153.13;1683079;83;21119;-66